sensor_id;sensor_type;location;lat;lon;timestamp;temperature;humidity
39023;DHT22;25908;51.984;5.928;2023-01-04T00:00:34;9.50;99.90
39023;DHT22;25908;51.984;5.928;2023-01-04T00:03:00;9.40;99.90
39023;DHT22;25908;51.984;5.928;2023-01-04T00:05:25;9.50;99.90
39023;DHT22;25908;51.984;5.928;2023-01-04T00:07:51;9.40;99.90
39023;DHT22;25908;51.984;5.928;2023-01-04T00:10:16;9.40;99.90
39023;DHT22;25908;51.984;5.928;2023-01-04T00:12:42;9.40;99.90
39023;DHT22;25908;51.984;5.928;2023-01-04T00:15:08;9.40;99.90
39023;DHT22;25908;51.984;5.928;2023-01-04T00:17:34;9.40;99.90
39023;DHT22;25908;51.984;5.928;2023-01-04T00:19:59;9.40;99.90
39023;DHT22;25908;51.984;5.928;2023-01-04T00:22:25;9.40;99.90
39023;DHT22;25908;51.984;5.928;2023-01-04T00:24:50;9.30;99.90
39023;DHT22;25908;51.984;5.928;2023-01-04T00:27:16;9.40;99.90
39023;DHT22;25908;51.984;5.928;2023-01-04T00:29:41;9.40;99.90
39023;DHT22;25908;51.984;5.928;2023-01-04T00:32:07;9.40;99.90
39023;DHT22;25908;51.984;5.928;2023-01-04T00:34:32;9.40;99.90
39023;DHT22;25908;51.984;5.928;2023-01-04T00:36:58;9.40;99.90
39023;DHT22;25908;51.984;5.928;2023-01-04T00:39:24;9.30;99.90
39023;DHT22;25908;51.984;5.928;2023-01-04T00:41:51;9.30;99.90
39023;DHT22;25908;51.984;5.928;2023-01-04T00:44:17;9.30;99.90
39023;DHT22;25908;51.984;5.928;2023-01-04T00:46:46;9.30;99.90
39023;DHT22;25908;51.984;5.928;2023-01-04T00:49:12;9.30;99.90
39023;DHT22;25908;51.984;5.928;2023-01-04T00:51:40;9.30;99.90
39023;DHT22;25908;51.984;5.928;2023-01-04T00:54:08;9.30;99.90
39023;DHT22;25908;51.984;5.928;2023-01-04T00:56:35;9.30;99.90
39023;DHT22;25908;51.984;5.928;2023-01-04T00:59:02;9.30;99.90
39023;DHT22;25908;51.984;5.928;2023-01-04T01:01:29;9.30;99.90
39023;DHT22;25908;51.984;5.928;2023-01-04T01:03:57;9.30;99.90
39023;DHT22;25908;51.984;5.928;2023-01-04T01:06:23;9.30;99.90
39023;DHT22;25908;51.984;5.928;2023-01-04T01:08:50;9.30;99.90
39023;DHT22;25908;51.984;5.928;2023-01-04T01:11:16;9.30;99.90
39023;DHT22;25908;51.984;5.928;2023-01-04T01:13:42;9.30;99.90
39023;DHT22;25908;51.984;5.928;2023-01-04T01:16:11;9.30;99.90
39023;DHT22;25908;51.984;5.928;2023-01-04T01:18:38;9.30;99.90
39023;DHT22;25908;51.984;5.928;2023-01-04T01:21:09;9.30;99.90
39023;DHT22;25908;51.984;5.928;2023-01-04T01:23:35;9.30;99.90
39023;DHT22;25908;51.984;5.928;2023-01-04T01:26:03;9.30;99.90
39023;DHT22;25908;51.984;5.928;2023-01-04T01:28:29;9.30;99.90
39023;DHT22;25908;51.984;5.928;2023-01-04T01:30:55;9.30;99.90
39023;DHT22;25908;51.984;5.928;2023-01-04T01:33:21;9.30;99.90
39023;DHT22;25908;51.984;5.928;2023-01-04T01:35:46;9.30;99.90
39023;DHT22;25908;51.984;5.928;2023-01-04T01:38:12;9.30;99.90
39023;DHT22;25908;51.984;5.928;2023-01-04T01:40:41;9.30;99.90
39023;DHT22;25908;51.984;5.928;2023-01-04T01:43:19;9.30;99.90
39023;DHT22;25908;51.984;5.928;2023-01-04T01:45:52;9.40;99.90
39023;DHT22;25908;51.984;5.928;2023-01-04T01:48:26;9.40;99.90
39023;DHT22;25908;51.984;5.928;2023-01-04T01:50:56;9.40;99.90
39023;DHT22;25908;51.984;5.928;2023-01-04T01:53:24;9.40;99.90
39023;DHT22;25908;51.984;5.928;2023-01-04T01:55:51;9.40;99.90
39023;DHT22;25908;51.984;5.928;2023-01-04T01:58:29;9.40;99.90
39023;DHT22;25908;51.984;5.928;2023-01-04T02:00:56;9.40;99.90
39023;DHT22;25908;51.984;5.928;2023-01-04T02:03:23;9.40;99.90
39023;DHT22;25908;51.984;5.928;2023-01-04T02:05:53;9.50;99.90
39023;DHT22;25908;51.984;5.928;2023-01-04T02:08:21;9.50;99.90
39023;DHT22;25908;51.984;5.928;2023-01-04T02:10:48;9.50;99.90
39023;DHT22;25908;51.984;5.928;2023-01-04T02:13:17;9.50;99.90
39023;DHT22;25908;51.984;5.928;2023-01-04T02:45:13;9.70;99.90
39023;DHT22;25908;51.984;5.928;2023-01-04T02:47:39;9.70;99.90
39023;DHT22;25908;51.984;5.928;2023-01-04T02:50:53;9.70;99.90
39023;DHT22;25908;51.984;5.928;2023-01-04T02:56:19;9.70;99.90
39023;DHT22;25908;51.984;5.928;2023-01-04T02:59:22;9.80;99.90
39023;DHT22;25908;51.984;5.928;2023-01-04T03:05:25;9.80;99.90
39023;DHT22;25908;51.984;5.928;2023-01-04T03:10:47;9.90;99.90
39023;DHT22;25908;51.984;5.928;2023-01-04T03:13:25;9.90;99.90
39023;DHT22;25908;51.984;5.928;2023-01-04T03:15:59;9.90;99.90
39023;DHT22;25908;51.984;5.928;2023-01-04T03:18:29;9.90;99.90
39023;DHT22;25908;51.984;5.928;2023-01-04T03:20:58;9.90;99.90
39023;DHT22;25908;51.984;5.928;2023-01-04T03:23:28;10.00;99.90
39023;DHT22;25908;51.984;5.928;2023-01-04T03:26:20;10.00;99.90
39023;DHT22;25908;51.984;5.928;2023-01-04T03:29:20;10.00;99.90
39023;DHT22;25908;51.984;5.928;2023-01-04T03:32:11;10.00;99.90
39023;DHT22;25908;51.984;5.928;2023-01-04T03:34:57;10.00;99.90
39023;DHT22;25908;51.984;5.928;2023-01-04T03:37:44;10.00;99.90
39023;DHT22;25908;51.984;5.928;2023-01-04T03:40:28;10.10;99.90
39023;DHT22;25908;51.984;5.928;2023-01-04T03:43:21;10.10;99.90
39023;DHT22;25908;51.984;5.928;2023-01-04T03:46:18;10.10;99.90
39023;DHT22;25908;51.984;5.928;2023-01-04T03:51:45;10.10;99.90
39023;DHT22;25908;51.984;5.928;2023-01-04T03:54:22;10.10;99.90
39023;DHT22;25908;51.984;5.928;2023-01-04T03:56:50;10.10;99.90
39023;DHT22;25908;51.984;5.928;2023-01-04T03:59:16;10.20;99.90
39023;DHT22;25908;51.984;5.928;2023-01-04T04:01:43;10.10;99.90
39023;DHT22;25908;51.984;5.928;2023-01-04T04:04:09;10.20;99.90
39023;DHT22;25908;51.984;5.928;2023-01-04T04:06:53;10.20;99.90
39023;DHT22;25908;51.984;5.928;2023-01-04T04:09:37;10.30;99.90
39023;DHT22;25908;51.984;5.928;2023-01-04T04:12:03;10.30;99.90
39023;DHT22;25908;51.984;5.928;2023-01-04T04:14:29;10.30;99.90
39023;DHT22;25908;51.984;5.928;2023-01-04T04:16:54;10.30;99.90
39023;DHT22;25908;51.984;5.928;2023-01-04T04:19:20;10.40;99.90
39023;DHT22;25908;51.984;5.928;2023-01-04T04:21:46;10.40;99.90
39023;DHT22;25908;51.984;5.928;2023-01-04T04:24:22;10.40;99.90
39023;DHT22;25908;51.984;5.928;2023-01-04T04:26:49;10.40;99.90
39023;DHT22;25908;51.984;5.928;2023-01-04T04:29:15;10.40;99.90
39023;DHT22;25908;51.984;5.928;2023-01-04T04:31:41;10.40;99.90
39023;DHT22;25908;51.984;5.928;2023-01-04T04:34:06;10.50;99.90
39023;DHT22;25908;51.984;5.928;2023-01-04T04:36:32;10.50;99.90
39023;DHT22;25908;51.984;5.928;2023-01-04T04:38:57;10.50;99.90
39023;DHT22;25908;51.984;5.928;2023-01-04T04:41:23;10.50;99.90
39023;DHT22;25908;51.984;5.928;2023-01-04T04:44:08;10.60;99.90
39023;DHT22;25908;51.984;5.928;2023-01-04T04:46:34;10.60;99.90
39023;DHT22;25908;51.984;5.928;2023-01-04T04:48:59;10.60;99.90
39023;DHT22;25908;51.984;5.928;2023-01-04T04:51:25;10.60;99.90
39023;DHT22;25908;51.984;5.928;2023-01-04T04:53:51;10.70;99.90
39023;DHT22;25908;51.984;5.928;2023-01-04T04:56:16;10.70;99.90
39023;DHT22;25908;51.984;5.928;2023-01-04T04:58:42;10.70;99.90
39023;DHT22;25908;51.984;5.928;2023-01-04T05:01:08;10.70;99.90
39023;DHT22;25908;51.984;5.928;2023-01-04T05:03:33;10.70;99.90
39023;DHT22;25908;51.984;5.928;2023-01-04T05:05:59;10.80;99.90
39023;DHT22;25908;51.984;5.928;2023-01-04T05:08:25;10.80;99.90
39023;DHT22;25908;51.984;5.928;2023-01-04T05:10:51;10.80;99.90
39023;DHT22;25908;51.984;5.928;2023-01-04T05:13:17;10.80;99.90
39023;DHT22;25908;51.984;5.928;2023-01-04T05:15:46;10.80;99.90
39023;DHT22;25908;51.984;5.928;2023-01-04T05:18:14;10.80;99.90
39023;DHT22;25908;51.984;5.928;2023-01-04T05:20:40;10.80;99.90
39023;DHT22;25908;51.984;5.928;2023-01-04T05:23:06;10.80;99.90
39023;DHT22;25908;51.984;5.928;2023-01-04T05:25:33;10.80;99.90
39023;DHT22;25908;51.984;5.928;2023-01-04T05:27:58;10.80;99.90
39023;DHT22;25908;51.984;5.928;2023-01-04T05:30:24;10.90;99.90
39023;DHT22;25908;51.984;5.928;2023-01-04T05:33:08;10.90;99.90
39023;DHT22;25908;51.984;5.928;2023-01-04T05:35:34;10.90;99.90
39023;DHT22;25908;51.984;5.928;2023-01-04T05:37:59;10.80;99.90
39023;DHT22;25908;51.984;5.928;2023-01-04T05:40:25;10.80;99.90
39023;DHT22;25908;51.984;5.928;2023-01-04T05:42:51;10.90;99.90
39023;DHT22;25908;51.984;5.928;2023-01-04T05:45:16;10.80;99.90
39023;DHT22;25908;51.984;5.928;2023-01-04T05:47:43;10.90;99.90
39023;DHT22;25908;51.984;5.928;2023-01-04T05:50:09;10.80;99.90
39023;DHT22;25908;51.984;5.928;2023-01-04T05:52:35;10.80;99.90
39023;DHT22;25908;51.984;5.928;2023-01-04T05:55:01;10.80;99.90
39023;DHT22;25908;51.984;5.928;2023-01-04T05:57:27;10.80;99.90
39023;DHT22;25908;51.984;5.928;2023-01-04T05:59:53;10.90;99.90
39023;DHT22;25908;51.984;5.928;2023-01-04T06:02:29;10.90;99.90
39023;DHT22;25908;51.984;5.928;2023-01-04T06:04:54;10.90;99.90
39023;DHT22;25908;51.984;5.928;2023-01-04T06:07:20;10.90;99.90
39023;DHT22;25908;51.984;5.928;2023-01-04T06:09:46;10.90;99.90
39023;DHT22;25908;51.984;5.928;2023-01-04T06:12:12;10.90;99.90
39023;DHT22;25908;51.984;5.928;2023-01-04T06:14:38;10.90;99.90
39023;DHT22;25908;51.984;5.928;2023-01-04T06:17:04;11.00;99.90
39023;DHT22;25908;51.984;5.928;2023-01-04T06:19:30;11.00;99.90
39023;DHT22;25908;51.984;5.928;2023-01-04T06:21:56;11.00;99.90
39023;DHT22;25908;51.984;5.928;2023-01-04T06:24:22;11.00;99.90
39023;DHT22;25908;51.984;5.928;2023-01-04T06:26:47;11.00;99.90
39023;DHT22;25908;51.984;5.928;2023-01-04T06:29:13;11.00;99.90
39023;DHT22;25908;51.984;5.928;2023-01-04T06:31:38;11.00;99.90
39023;DHT22;25908;51.984;5.928;2023-01-04T06:34:04;11.00;99.90
39023;DHT22;25908;51.984;5.928;2023-01-04T06:36:30;11.10;99.90
39023;DHT22;25908;51.984;5.928;2023-01-04T06:38:57;11.10;99.90
39023;DHT22;25908;51.984;5.928;2023-01-04T06:41:23;11.10;99.90
39023;DHT22;25908;51.984;5.928;2023-01-04T06:43:48;11.10;99.90
39023;DHT22;25908;51.984;5.928;2023-01-04T06:46:14;11.10;99.90
39023;DHT22;25908;51.984;5.928;2023-01-04T06:48:40;11.10;99.90
39023;DHT22;25908;51.984;5.928;2023-01-04T06:51:06;11.20;99.90
39023;DHT22;25908;51.984;5.928;2023-01-04T06:53:31;11.20;99.90
39023;DHT22;25908;51.984;5.928;2023-01-04T06:55:57;11.20;99.90
39023;DHT22;25908;51.984;5.928;2023-01-04T06:58:23;11.20;99.90
39023;DHT22;25908;51.984;5.928;2023-01-04T07:00:50;11.30;99.90
39023;DHT22;25908;51.984;5.928;2023-01-04T07:03:16;11.20;99.90
39023;DHT22;25908;51.984;5.928;2023-01-04T07:05:42;11.40;99.90
39023;DHT22;25908;51.984;5.928;2023-01-04T07:08:08;11.30;99.90
39023;DHT22;25908;51.984;5.928;2023-01-04T07:10:34;11.30;99.90
39023;DHT22;25908;51.984;5.928;2023-01-04T07:49:27;11.10;99.90
39023;DHT22;25908;51.984;5.928;2023-01-04T07:51:52;11.40;99.90
39023;DHT22;25908;51.984;5.928;2023-01-04T07:54:18;11.50;99.90
39023;DHT22;25908;51.984;5.928;2023-01-04T07:56:45;11.50;99.90
39023;DHT22;25908;51.984;5.928;2023-01-04T07:59:11;11.50;99.90
39023;DHT22;25908;51.984;5.928;2023-01-04T08:01:38;11.50;99.90
39023;DHT22;25908;51.984;5.928;2023-01-04T08:04:05;11.60;99.90
39023;DHT22;25908;51.984;5.928;2023-01-04T08:06:31;11.60;99.90
39023;DHT22;25908;51.984;5.928;2023-01-04T08:08:57;11.60;99.90
39023;DHT22;25908;51.984;5.928;2023-01-04T08:11:23;11.60;99.90
39023;DHT22;25908;51.984;5.928;2023-01-04T08:13:49;11.60;99.90
39023;DHT22;25908;51.984;5.928;2023-01-04T08:16:23;11.60;99.90
39023;DHT22;25908;51.984;5.928;2023-01-04T08:19:03;11.60;99.90
39023;DHT22;25908;51.984;5.928;2023-01-04T08:21:31;11.60;99.90
39023;DHT22;25908;51.984;5.928;2023-01-04T08:23:57;11.60;99.90
39023;DHT22;25908;51.984;5.928;2023-01-04T08:26:23;11.60;99.90
39023;DHT22;25908;51.984;5.928;2023-01-04T08:28:49;11.60;99.90
39023;DHT22;25908;51.984;5.928;2023-01-04T08:31:21;11.60;99.90
39023;DHT22;25908;51.984;5.928;2023-01-04T08:33:47;11.60;99.90
39023;DHT22;25908;51.984;5.928;2023-01-04T08:38:47;11.70;99.90
39023;DHT22;25908;51.984;5.928;2023-01-04T08:41:14;11.70;99.90
39023;DHT22;25908;51.984;5.928;2023-01-04T08:43:40;11.70;99.90
39023;DHT22;25908;51.984;5.928;2023-01-04T08:46:06;11.70;99.90
39023;DHT22;25908;51.984;5.928;2023-01-04T08:48:32;11.70;99.90
39023;DHT22;25908;51.984;5.928;2023-01-04T08:50:59;11.70;99.90
39023;DHT22;25908;51.984;5.928;2023-01-04T08:53:26;11.80;99.90
39023;DHT22;25908;51.984;5.928;2023-01-04T08:55:52;11.80;99.90
39023;DHT22;25908;51.984;5.928;2023-01-04T08:58:18;11.80;99.90
39023;DHT22;25908;51.984;5.928;2023-01-04T09:00:44;11.80;99.90
39023;DHT22;25908;51.984;5.928;2023-01-04T09:03:10;11.80;99.90
39023;DHT22;25908;51.984;5.928;2023-01-04T09:05:35;11.80;99.90
39023;DHT22;25908;51.984;5.928;2023-01-04T09:08:01;11.80;99.90
39023;DHT22;25908;51.984;5.928;2023-01-04T09:10:27;11.80;99.90
39023;DHT22;25908;51.984;5.928;2023-01-04T09:12:53;11.80;99.90
39023;DHT22;25908;51.984;5.928;2023-01-04T09:15:18;11.80;99.90
39023;DHT22;25908;51.984;5.928;2023-01-04T09:17:44;11.90;99.90
39023;DHT22;25908;51.984;5.928;2023-01-04T09:20:10;11.80;99.90
39023;DHT22;25908;51.984;5.928;2023-01-04T09:22:35;11.90;99.90
39023;DHT22;25908;51.984;5.928;2023-01-04T09:25:01;11.90;99.90
39023;DHT22;25908;51.984;5.928;2023-01-04T09:27:27;11.90;99.90
39023;DHT22;25908;51.984;5.928;2023-01-04T09:29:55;11.90;99.90
39023;DHT22;25908;51.984;5.928;2023-01-04T09:32:20;11.90;99.90
39023;DHT22;25908;51.984;5.928;2023-01-04T09:34:46;11.90;99.90
39023;DHT22;25908;51.984;5.928;2023-01-04T09:37:12;11.90;99.90
39023;DHT22;25908;51.984;5.928;2023-01-04T09:39:37;12.00;99.90
39023;DHT22;25908;51.984;5.928;2023-01-04T09:42:12;12.00;99.90
39023;DHT22;25908;51.984;5.928;2023-01-04T09:44:50;12.00;99.90
39023;DHT22;25908;51.984;5.928;2023-01-04T09:52:45;12.00;99.90
39023;DHT22;25908;51.984;5.928;2023-01-04T09:55:19;12.00;99.90
39023;DHT22;25908;51.984;5.928;2023-01-04T09:57:54;12.10;99.90
39023;DHT22;25908;51.984;5.928;2023-01-04T10:00:34;12.00;99.90
39023;DHT22;25908;51.984;5.928;2023-01-04T10:05:36;12.10;99.90
39023;DHT22;25908;51.984;5.928;2023-01-04T10:08:02;12.10;99.90
39023;DHT22;25908;51.984;5.928;2023-01-04T10:10:47;12.00;99.90
39023;DHT22;25908;51.984;5.928;2023-01-04T10:21:48;12.20;99.90
39023;DHT22;25908;51.984;5.928;2023-01-04T10:27:06;12.20;99.90
39023;DHT22;25908;51.984;5.928;2023-01-04T10:29:48;12.30;99.90
39023;DHT22;25908;51.984;5.928;2023-01-04T10:32:45;12.30;99.90
39023;DHT22;25908;51.984;5.928;2023-01-04T10:35:22;12.30;99.90
39023;DHT22;25908;51.984;5.928;2023-01-04T10:38:00;12.30;99.90
39023;DHT22;25908;51.984;5.928;2023-01-04T10:40:34;12.30;99.90
39023;DHT22;25908;51.984;5.928;2023-01-04T10:43:06;12.20;99.90
39023;DHT22;25908;51.984;5.928;2023-01-04T10:45:56;12.20;99.90
39023;DHT22;25908;51.984;5.928;2023-01-04T10:48:34;12.20;99.90
39023;DHT22;25908;51.984;5.928;2023-01-04T10:51:04;12.20;99.90
39023;DHT22;25908;51.984;5.928;2023-01-04T10:53:47;12.20;99.90
39023;DHT22;25908;51.984;5.928;2023-01-04T10:56:19;12.20;99.90
39023;DHT22;25908;51.984;5.928;2023-01-04T11:06:56;12.30;99.90
39023;DHT22;25908;51.984;5.928;2023-01-04T11:09:28;12.30;99.90
39023;DHT22;25908;51.984;5.928;2023-01-04T11:11:57;12.30;99.90
39023;DHT22;25908;51.984;5.928;2023-01-04T11:14:23;12.30;99.90
39023;DHT22;25908;51.984;5.928;2023-01-04T11:16:52;12.30;99.90
39023;DHT22;25908;51.984;5.928;2023-01-04T11:19:20;12.40;99.90
39023;DHT22;25908;51.984;5.928;2023-01-04T11:21:51;12.40;99.90
39023;DHT22;25908;51.984;5.928;2023-01-04T11:24:21;12.40;99.90
39023;DHT22;25908;51.984;5.928;2023-01-04T11:26:47;12.40;99.90
39023;DHT22;25908;51.984;5.928;2023-01-04T11:32:07;12.40;99.90
39023;DHT22;25908;51.984;5.928;2023-01-04T11:34:48;12.30;99.90
39023;DHT22;25908;51.984;5.928;2023-01-04T11:37:38;12.40;99.90
39023;DHT22;25908;51.984;5.928;2023-01-04T11:40:24;12.40;99.90
39023;DHT22;25908;51.984;5.928;2023-01-04T11:43:13;12.40;99.90
39023;DHT22;25908;51.984;5.928;2023-01-04T11:45:40;12.40;99.90
39023;DHT22;25908;51.984;5.928;2023-01-04T11:48:16;12.40;99.90
39023;DHT22;25908;51.984;5.928;2023-01-04T11:50:44;12.40;99.90
39023;DHT22;25908;51.984;5.928;2023-01-04T11:53:34;12.40;99.90
39023;DHT22;25908;51.984;5.928;2023-01-04T11:58:38;12.40;99.90
39023;DHT22;25908;51.984;5.928;2023-01-04T12:01:03;12.40;99.90
39023;DHT22;25908;51.984;5.928;2023-01-04T12:05:57;12.40;99.90
39023;DHT22;25908;51.984;5.928;2023-01-04T12:08:31;12.50;99.90
39023;DHT22;25908;51.984;5.928;2023-01-04T12:10:58;12.50;99.90
39023;DHT22;25908;51.984;5.928;2023-01-04T12:13:24;12.50;99.90
39023;DHT22;25908;51.984;5.928;2023-01-04T12:16:31;12.50;99.90
39023;DHT22;25908;51.984;5.928;2023-01-04T12:18:58;12.50;99.90
39023;DHT22;25908;51.984;5.928;2023-01-04T12:21:25;12.50;99.90
39023;DHT22;25908;51.984;5.928;2023-01-04T12:23:53;12.60;99.90
39023;DHT22;25908;51.984;5.928;2023-01-04T12:26:19;12.70;99.90
39023;DHT22;25908;51.984;5.928;2023-01-04T12:31:33;12.70;99.90
39023;DHT22;25908;51.984;5.928;2023-01-04T12:55:10;12.90;99.90
39023;DHT22;25908;51.984;5.928;2023-01-04T12:57:47;13.00;99.90
39023;DHT22;25908;51.984;5.928;2023-01-04T13:00:15;13.00;99.90
39023;DHT22;25908;51.984;5.928;2023-01-04T13:29:13;13.20;99.90
39023;DHT22;25908;51.984;5.928;2023-01-04T13:32:09;13.30;99.90
39023;DHT22;25908;51.984;5.928;2023-01-04T13:34:38;13.30;99.90
39023;DHT22;25908;51.984;5.928;2023-01-04T13:39:46;13.30;99.90
39023;DHT22;25908;51.984;5.928;2023-01-04T13:42:30;13.30;99.90
39023;DHT22;25908;51.984;5.928;2023-01-04T13:45:20;13.40;99.90
39023;DHT22;25908;51.984;5.928;2023-01-04T13:47:50;13.30;99.90
39023;DHT22;25908;51.984;5.928;2023-01-04T13:50:25;13.40;99.90
39023;DHT22;25908;51.984;5.928;2023-01-04T13:52:51;13.40;99.90
39023;DHT22;25908;51.984;5.928;2023-01-04T13:55:25;13.30;99.90
39023;DHT22;25908;51.984;5.928;2023-01-04T14:00:19;13.40;99.90
39023;DHT22;25908;51.984;5.928;2023-01-04T14:02:44;13.40;99.90
39023;DHT22;25908;51.984;5.928;2023-01-04T14:05:15;13.40;99.90
39023;DHT22;25908;51.984;5.928;2023-01-04T14:07:43;13.40;99.90
39023;DHT22;25908;51.984;5.928;2023-01-04T14:10:16;13.40;99.90
39023;DHT22;25908;51.984;5.928;2023-01-04T14:12:44;13.40;99.90
39023;DHT22;25908;51.984;5.928;2023-01-04T14:15:23;13.40;99.90
39023;DHT22;25908;51.984;5.928;2023-01-04T14:30:44;13.40;99.90
39023;DHT22;25908;51.984;5.928;2023-01-04T14:33:18;13.40;99.90
39023;DHT22;25908;51.984;5.928;2023-01-04T14:35:45;13.40;99.90
39023;DHT22;25908;51.984;5.928;2023-01-04T14:38:25;13.40;99.90
39023;DHT22;25908;51.984;5.928;2023-01-04T14:40:51;13.40;99.90
39023;DHT22;25908;51.984;5.928;2023-01-04T14:43:34;13.40;99.90
39023;DHT22;25908;51.984;5.928;2023-01-04T14:46:00;13.40;99.90
39023;DHT22;25908;51.984;5.928;2023-01-04T14:48:28;13.40;99.90
39023;DHT22;25908;51.984;5.928;2023-01-04T14:50:53;13.40;99.90
39023;DHT22;25908;51.984;5.928;2023-01-04T14:53:19;13.40;99.90
39023;DHT22;25908;51.984;5.928;2023-01-04T14:55:45;13.40;99.90
39023;DHT22;25908;51.984;5.928;2023-01-04T14:58:11;13.40;99.90
39023;DHT22;25908;51.984;5.928;2023-01-04T15:00:37;13.40;99.90
39023;DHT22;25908;51.984;5.928;2023-01-04T15:03:02;13.40;99.90
39023;DHT22;25908;51.984;5.928;2023-01-04T15:05:28;13.40;99.90
39023;DHT22;25908;51.984;5.928;2023-01-04T15:07:53;13.40;99.90
39023;DHT22;25908;51.984;5.928;2023-01-04T15:10:27;13.50;99.90
39023;DHT22;25908;51.984;5.928;2023-01-04T15:12:53;13.40;99.90
39023;DHT22;25908;51.984;5.928;2023-01-04T15:15:19;13.50;99.90
39023;DHT22;25908;51.984;5.928;2023-01-04T15:17:45;13.50;99.90
39023;DHT22;25908;51.984;5.928;2023-01-04T15:20:11;13.50;99.90
39023;DHT22;25908;51.984;5.928;2023-01-04T15:22:38;13.40;99.90
39023;DHT22;25908;51.984;5.928;2023-01-04T15:25:03;13.40;99.90
39023;DHT22;25908;51.984;5.928;2023-01-04T15:27:29;13.40;99.90
39023;DHT22;25908;51.984;5.928;2023-01-04T15:29:55;13.40;99.90
39023;DHT22;25908;51.984;5.928;2023-01-04T15:32:20;13.40;99.90
39023;DHT22;25908;51.984;5.928;2023-01-04T15:34:48;13.40;99.90
39023;DHT22;25908;51.984;5.928;2023-01-04T15:37:14;13.40;99.90
39023;DHT22;25908;51.984;5.928;2023-01-04T15:39:39;13.40;99.90
39023;DHT22;25908;51.984;5.928;2023-01-04T15:42:05;13.40;99.90
39023;DHT22;25908;51.984;5.928;2023-01-04T15:44:49;13.40;99.90
39023;DHT22;25908;51.984;5.928;2023-01-04T15:47:14;13.40;99.90
39023;DHT22;25908;51.984;5.928;2023-01-04T15:49:40;13.30;99.90
39023;DHT22;25908;51.984;5.928;2023-01-04T15:52:05;13.30;99.90
39023;DHT22;25908;51.984;5.928;2023-01-04T15:54:31;13.30;99.90
39023;DHT22;25908;51.984;5.928;2023-01-04T15:56:57;13.30;99.90
39023;DHT22;25908;51.984;5.928;2023-01-04T15:59:23;13.30;99.90
39023;DHT22;25908;51.984;5.928;2023-01-04T16:01:48;13.30;99.90
39023;DHT22;25908;51.984;5.928;2023-01-04T16:04:14;13.20;99.90
39023;DHT22;25908;51.984;5.928;2023-01-04T16:06:40;13.20;99.90
39023;DHT22;25908;51.984;5.928;2023-01-04T16:09:05;13.30;99.90
39023;DHT22;25908;51.984;5.928;2023-01-04T16:11:32;13.20;99.90
39023;DHT22;25908;51.984;5.928;2023-01-04T16:13:58;13.20;99.90
39023;DHT22;25908;51.984;5.928;2023-01-04T16:16:25;13.20;99.90
39023;DHT22;25908;51.984;5.928;2023-01-04T16:18:55;13.20;99.90
39023;DHT22;25908;51.984;5.928;2023-01-04T16:21:25;13.20;99.90
39023;DHT22;25908;51.984;5.928;2023-01-04T16:23:53;13.10;99.90
39023;DHT22;25908;51.984;5.928;2023-01-04T16:26:19;13.10;99.90
39023;DHT22;25908;51.984;5.928;2023-01-04T16:28:49;13.10;99.90
39023;DHT22;25908;51.984;5.928;2023-01-04T16:31:15;13.10;99.90
39023;DHT22;25908;51.984;5.928;2023-01-04T16:33:44;13.10;99.90
39023;DHT22;25908;51.984;5.928;2023-01-04T16:36:12;13.10;99.90
39023;DHT22;25908;51.984;5.928;2023-01-04T16:38:41;13.00;99.90
39023;DHT22;25908;51.984;5.928;2023-01-04T16:41:10;13.00;99.90
39023;DHT22;25908;51.984;5.928;2023-01-04T16:43:46;13.00;99.90
39023;DHT22;25908;51.984;5.928;2023-01-04T16:48:41;13.00;99.90
39023;DHT22;25908;51.984;5.928;2023-01-04T16:51:06;13.00;99.90
39023;DHT22;25908;51.984;5.928;2023-01-04T16:53:34;12.90;99.90
39023;DHT22;25908;51.984;5.928;2023-01-04T16:56:02;12.90;99.90
39023;DHT22;25908;51.984;5.928;2023-01-04T16:58:29;13.00;99.90
39023;DHT22;25908;51.984;5.928;2023-01-04T17:00:54;13.00;99.90
39023;DHT22;25908;51.984;5.928;2023-01-04T17:03:20;13.00;99.90
39023;DHT22;25908;51.984;5.928;2023-01-04T17:05:45;13.00;99.90
39023;DHT22;25908;51.984;5.928;2023-01-04T17:08:11;13.00;99.90
39023;DHT22;25908;51.984;5.928;2023-01-04T17:10:36;13.00;99.90
39023;DHT22;25908;51.984;5.928;2023-01-04T17:13:02;13.00;99.90
39023;DHT22;25908;51.984;5.928;2023-01-04T17:15:28;13.00;99.90
39023;DHT22;25908;51.984;5.928;2023-01-04T17:17:54;13.00;99.90
39023;DHT22;25908;51.984;5.928;2023-01-04T17:20:19;13.00;99.90
39023;DHT22;25908;51.984;5.928;2023-01-04T17:22:45;13.10;99.90
39023;DHT22;25908;51.984;5.928;2023-01-04T17:25:10;13.10;99.90
39023;DHT22;25908;51.984;5.928;2023-01-04T17:27:36;13.00;99.90
39023;DHT22;25908;51.984;5.928;2023-01-04T17:30:02;13.00;99.90
39023;DHT22;25908;51.984;5.928;2023-01-04T17:32:28;13.00;99.90
39023;DHT22;25908;51.984;5.928;2023-01-04T17:34:54;13.00;99.90
39023;DHT22;25908;51.984;5.928;2023-01-04T17:37:21;13.00;99.90
39023;DHT22;25908;51.984;5.928;2023-01-04T17:39:47;12.90;99.90
39023;DHT22;25908;51.984;5.928;2023-01-04T17:42:12;13.00;99.90
39023;DHT22;25908;51.984;5.928;2023-01-04T17:44:38;12.90;99.90
39023;DHT22;25908;51.984;5.928;2023-01-04T17:47:04;13.00;99.90
39023;DHT22;25908;51.984;5.928;2023-01-04T17:49:30;12.90;99.90
39023;DHT22;25908;51.984;5.928;2023-01-04T17:51:55;12.90;99.90
39023;DHT22;25908;51.984;5.928;2023-01-04T17:54:21;12.90;99.90
39023;DHT22;25908;51.984;5.928;2023-01-04T17:56:49;12.90;99.90
39023;DHT22;25908;51.984;5.928;2023-01-04T17:59:15;12.90;99.90
39023;DHT22;25908;51.984;5.928;2023-01-04T18:01:41;12.90;99.90
39023;DHT22;25908;51.984;5.928;2023-01-04T18:04:06;12.90;99.90
39023;DHT22;25908;51.984;5.928;2023-01-04T18:06:34;12.90;99.90
39023;DHT22;25908;51.984;5.928;2023-01-04T18:09:01;12.90;99.90
39023;DHT22;25908;51.984;5.928;2023-01-04T18:11:27;12.90;99.90
39023;DHT22;25908;51.984;5.928;2023-01-04T18:13:53;12.80;99.90
39023;DHT22;25908;51.984;5.928;2023-01-04T18:16:21;12.80;99.90
39023;DHT22;25908;51.984;5.928;2023-01-04T18:18:48;12.80;99.90
39023;DHT22;25908;51.984;5.928;2023-01-04T18:21:16;12.80;99.90
39023;DHT22;25908;51.984;5.928;2023-01-04T18:23:44;12.80;99.90
39023;DHT22;25908;51.984;5.928;2023-01-04T18:26:11;12.80;99.90
39023;DHT22;25908;51.984;5.928;2023-01-04T18:28:37;12.80;99.90
39023;DHT22;25908;51.984;5.928;2023-01-04T18:31:17;12.80;99.90
39023;DHT22;25908;51.984;5.928;2023-01-04T18:33:49;12.80;99.90
39023;DHT22;25908;51.984;5.928;2023-01-04T18:36:15;12.70;99.90
39023;DHT22;25908;51.984;5.928;2023-01-04T18:38:40;12.70;99.90
39023;DHT22;25908;51.984;5.928;2023-01-04T18:41:07;12.70;99.90
39023;DHT22;25908;51.984;5.928;2023-01-04T18:43:34;12.70;99.90
39023;DHT22;25908;51.984;5.928;2023-01-04T18:46:04;12.80;99.90
39023;DHT22;25908;51.984;5.928;2023-01-04T18:48:30;12.70;99.90
39023;DHT22;25908;51.984;5.928;2023-01-04T18:51:01;12.70;99.90